createdAt,value
2023-03-08T00:00:57.821Z,95918.09
2023-03-08T00:02:59.165Z,95923.59
2023-03-08T00:05:01.889Z,95924.97
2023-03-08T00:07:03.294Z,95929.91
2023-03-08T00:09:04.782Z,95931.19
2023-03-08T00:11:06.119Z,95933.47
2023-03-08T00:13:07.522Z,95947.16
2023-03-08T00:15:08.889Z,95943.63
2023-03-08T00:17:10.236Z,95940.13
2023-03-08T00:19:11.558Z,95958.00
2023-03-08T00:21:12.938Z,95965.06
2023-03-08T00:23:14.322Z,95960.00
2023-03-08T00:25:16.591Z,95953.34
2023-03-08T00:27:17.945Z,95966.84
2023-03-08T00:29:19.346Z,95958.56
2023-03-08T00:31:20.759Z,95961.28
2023-03-08T00:33:22.093Z,95957.25
2023-03-08T00:35:23.466Z,95969.47
2023-03-08T00:37:24.817Z,95969.72
2023-03-08T00:39:26.139Z,95968.91
2023-03-08T00:41:27.549Z,95975.84
2023-03-08T00:43:28.918Z,95974.34
2023-03-08T00:45:30.248Z,95978.72
2023-03-08T00:47:31.601Z,95982.16
2023-03-08T00:49:32.964Z,95982.38
2023-03-08T00:51:34.367Z,95984.16
2023-03-08T00:53:35.722Z,95984.16
2023-03-08T00:55:37.112Z,95991.09
2023-03-08T00:57:38.436Z,95875.06
2023-03-08T00:59:39.815Z,95993.75
2023-03-08T01:01:41.156Z,95989.53
2023-03-08T01:03:42.552Z,95991.97
2023-03-08T01:05:43.926Z,95995.38
2023-03-08T01:07:45.275Z,95999.66
2023-03-08T01:09:46.612Z,95990.91
2023-03-08T01:11:47.942Z,95995.94
2023-03-08T01:13:49.301Z,95990.66
2023-03-08T01:15:50.677Z,95996.44
2023-03-08T01:17:52.014Z,95988.66
2023-03-08T01:19:53.426Z,95989.59
2023-03-08T01:21:54.796Z,95998.97
2023-03-08T01:23:56.150Z,95991.22
2023-03-08T01:25:57.525Z,95994.44
2023-03-08T01:27:58.853Z,95995.16
2023-03-08T01:30:00.187Z,96003.41
2023-03-08T01:32:02.193Z,96005.78
2023-03-08T01:34:03.614Z,96003.88
2023-03-08T01:36:05.066Z,95991.69
2023-03-08T01:38:06.466Z,95862.25
2023-03-08T01:40:07.852Z,96002.78
2023-03-08T01:42:09.232Z,96004.34
2023-03-08T01:44:10.608Z,96000.06
2023-03-08T01:46:12.185Z,96012.44
2023-03-08T01:48:13.516Z,96014.41
2023-03-08T01:50:14.901Z,96006.28
2023-03-08T01:52:16.222Z,96009.50
2023-03-08T01:54:17.553Z,96008.41
2023-03-08T01:56:18.883Z,96013.78
2023-03-08T01:58:20.257Z,96017.41
2023-03-08T02:00:23.077Z,96025.16
2023-03-08T02:02:24.953Z,96025.16
2023-03-08T02:04:26.838Z,96014.28
2023-03-08T02:06:28.369Z,96013.63
2023-03-08T02:08:29.682Z,96021.38
2023-03-08T02:10:31.138Z,96026.66
2023-03-08T02:12:32.472Z,96027.66
2023-03-08T02:14:33.800Z,96030.31
2023-03-08T02:16:35.136Z,96033.84
2023-03-08T02:18:36.468Z,96027.41
2023-03-08T02:20:37.840Z,96022.56
2023-03-08T02:22:39.203Z,96026.16
2023-03-08T02:24:40.553Z,96028.72
2023-03-08T02:26:41.891Z,96020.28
2023-03-08T02:28:43.264Z,96028.66
2023-03-08T02:30:44.585Z,96019.13
2023-03-08T02:32:46.059Z,96031.69
2023-03-08T02:34:47.456Z,96030.78
2023-03-08T02:36:48.813Z,96025.69
2023-03-08T02:38:50.232Z,96035.78
2023-03-08T02:40:52.914Z,96034.91
2023-03-08T02:42:56.134Z,96032.91
2023-03-08T02:44:57.536Z,96019.09
2023-03-08T02:46:58.888Z,96019.47
2023-03-08T02:49:00.266Z,96025.31
2023-03-08T02:51:01.597Z,96015.66
2023-03-08T02:53:02.957Z,96017.06
2023-03-08T02:55:04.309Z,96023.72
2023-03-08T02:57:05.656Z,96019.19
2023-03-08T02:59:07.006Z,96025.84
2023-03-08T03:01:08.385Z,96035.16
2023-03-08T03:03:09.756Z,96028.34
2023-03-08T03:05:11.357Z,96026.66
2023-03-08T03:07:12.691Z,96022.38
2023-03-08T03:09:14.092Z,96030.13
2023-03-08T03:11:15.609Z,96024.28
2023-03-08T03:13:16.932Z,96020.84
2023-03-08T03:15:18.313Z,96012.59
2023-03-08T03:17:19.649Z,96011.13
2023-03-08T03:19:20.990Z,96012.28
2023-03-08T03:21:22.301Z,96026.97
2023-03-08T03:23:23.617Z,96034.03
2023-03-08T03:25:25.064Z,96031.75
2023-03-08T03:27:26.398Z,96024.25
2023-03-08T03:29:27.750Z,96032.09
2023-03-08T03:31:29.137Z,96028.91
2023-03-08T03:33:30.570Z,96028.13
2023-03-08T03:35:31.900Z,96035.91
2023-03-08T03:37:33.876Z,96038.34
2023-03-08T03:39:35.235Z,96042.72
2023-03-08T03:41:36.584Z,96047.59
2023-03-08T03:43:37.929Z,96044.88
2023-03-08T03:45:39.331Z,96051.72
2023-03-08T03:47:40.719Z,96054.91
2023-03-08T03:49:42.106Z,96043.50
2023-03-08T03:51:43.438Z,96043.91
2023-03-08T03:53:44.765Z,96043.19
2023-03-08T03:55:46.145Z,96044.69
2023-03-08T03:57:47.510Z,96052.56
2023-03-08T03:59:48.854Z,96058.75
2023-03-08T04:01:50.179Z,96052.50
2023-03-08T04:03:51.536Z,96051.56
2023-03-08T04:05:52.930Z,96054.78
2023-03-08T04:07:54.301Z,96056.41
2023-03-08T04:09:55.752Z,96069.22
2023-03-08T04:12:02.468Z,96070.13
2023-03-08T04:14:03.836Z,96073.84
2023-03-08T04:16:05.257Z,96063.25
2023-03-08T04:18:06.684Z,96070.56
2023-03-08T04:20:08.068Z,96064.25
2023-03-08T04:22:09.402Z,96076.75
2023-03-08T04:24:10.733Z,96065.38
2023-03-08T04:26:13.374Z,96069.50
2023-03-08T04:28:14.705Z,96073.78
2023-03-08T04:30:16.045Z,96068.78
2023-03-08T04:32:17.422Z,96067.03
2023-03-08T04:34:19.168Z,96069.59
2023-03-08T04:36:20.506Z,96062.84
2023-03-08T04:38:21.876Z,96062.84
2023-03-08T04:40:23.233Z,96070.41
2023-03-08T04:42:24.684Z,96067.22
2023-03-08T04:44:26.063Z,96063.25
2023-03-08T04:46:27.496Z,96065.06
2023-03-08T04:48:28.904Z,96073.06
2023-03-08T04:50:30.283Z,96064.72
2023-03-08T04:52:31.633Z,96074.28
2023-03-08T04:54:33.186Z,96068.53
2023-03-08T04:56:34.565Z,96073.69
2023-03-08T04:58:35.903Z,96072.22
2023-03-08T05:00:37.359Z,96069.88
2023-03-08T05:02:38.779Z,96059.91
2023-03-08T05:04:40.512Z,96070.38
2023-03-08T05:06:41.882Z,96061.56
2023-03-08T05:08:43.232Z,96064.41
2023-03-08T05:10:44.556Z,96062.28
2023-03-08T05:12:45.891Z,96054.09
2023-03-08T05:14:47.238Z,96057.88
2023-03-08T05:16:48.680Z,96060.63
2023-03-08T05:18:50.072Z,96060.00
2023-03-08T05:20:51.597Z,96054.13
2023-03-08T05:22:59.297Z,96061.78
2023-03-08T05:25:00.794Z,96071.97
2023-03-08T05:27:02.262Z,96075.34
2023-03-08T05:29:04.025Z,96071.09
2023-03-08T05:31:05.403Z,96071.91
2023-03-08T05:33:06.744Z,96069.22
2023-03-08T05:35:09.269Z,96058.75
2023-03-08T05:37:10.612Z,96060.19
2023-03-08T05:39:12.013Z,96069.09
2023-03-08T05:41:13.364Z,96067.13
2023-03-08T05:43:14.695Z,96065.88
2023-03-08T05:45:16.110Z,96069.69
2023-03-08T05:47:17.451Z,96078.69
2023-03-08T05:49:18.835Z,96074.16
2023-03-08T05:51:20.197Z,96066.19
2023-03-08T05:53:21.587Z,96075.34
2023-03-08T05:55:22.926Z,96078.47
2023-03-08T05:57:24.289Z,96093.66
2023-03-08T05:59:26.828Z,96094.06
2023-03-08T06:01:28.194Z,96090.53
2023-03-08T06:03:29.577Z,96077.91
2023-03-08T06:05:30.989Z,96087.28
2023-03-08T06:07:32.377Z,96086.31
2023-03-08T06:09:34.048Z,96092.34
2023-03-08T06:11:35.396Z,96094.13
2023-03-08T06:13:36.781Z,96097.34
2023-03-08T06:15:38.110Z,96085.56
2023-03-08T06:17:39.488Z,96089.94
2023-03-08T06:19:40.889Z,96094.31
2023-03-08T06:21:42.277Z,96082.59
2023-03-08T06:23:43.751Z,96091.25
2023-03-08T06:25:45.148Z,96092.34
2023-03-08T06:27:46.713Z,96100.94
2023-03-08T06:29:48.947Z,96095.94
2023-03-08T06:31:50.276Z,96097.06
2023-03-08T06:33:51.621Z,96090.47
2023-03-08T06:35:52.985Z,96085.53
2023-03-08T06:37:54.338Z,96088.25
2023-03-08T06:39:55.686Z,96097.78
2023-03-08T06:41:57.014Z,96104.69
2023-03-08T06:43:58.357Z,96087.81
2023-03-08T06:45:59.865Z,96084.53
2023-03-08T06:48:01.286Z,96098.16
2023-03-08T06:50:02.614Z,96100.03
2023-03-08T06:52:03.949Z,96102.69
2023-03-08T06:54:05.267Z,96103.59
2023-03-08T06:56:06.817Z,96102.00
2023-03-08T06:58:08.136Z,96104.66
2023-03-08T07:00:09.885Z,96100.44
2023-03-08T07:02:11.323Z,96106.44
2023-03-08T07:04:12.716Z,96100.53
2023-03-08T07:06:14.124Z,96107.38
2023-03-08T07:08:15.469Z,96103.97
2023-03-08T07:10:16.953Z,96103.88
2023-03-08T07:12:18.293Z,96090.97
2023-03-08T07:14:19.669Z,96089.84
2023-03-08T07:16:21.188Z,96095.38
2023-03-08T07:18:22.616Z,96099.34
2023-03-08T07:20:24.022Z,96096.38
2023-03-08T07:22:25.361Z,96098.78
2023-03-08T07:24:26.725Z,96112.09
2023-03-08T07:26:28.077Z,96105.09
2023-03-08T07:28:29.417Z,96098.91
2023-03-08T07:30:30.805Z,96088.44
2023-03-08T07:32:32.290Z,96084.84
2023-03-08T07:34:33.676Z,96096.78
2023-03-08T07:36:35.032Z,96101.78
2023-03-08T07:38:36.420Z,96099.22
2023-03-08T07:40:37.753Z,96100.72
2023-03-08T07:42:39.084Z,96095.63
2023-03-08T07:44:40.432Z,96100.47
2023-03-08T07:46:41.768Z,96115.16
2023-03-08T07:48:43.280Z,96111.84
2023-03-08T07:50:44.597Z,96120.50
2023-03-08T07:52:45.937Z,96118.94
2023-03-08T07:54:47.300Z,96113.19
2023-03-08T07:56:48.682Z,96121.78
2023-03-08T07:58:50.072Z,96120.31
2023-03-08T08:00:51.400Z,96126.47
2023-03-08T08:02:54.176Z,96113.91
2023-03-08T08:04:55.708Z,96113.09
2023-03-08T08:06:59.148Z,96111.63
2023-03-08T08:09:00.490Z,96112.63
2023-03-08T08:11:02.243Z,96111.78
2023-03-08T08:13:03.631Z,96105.03
2023-03-08T08:15:05.050Z,96105.13
2023-03-08T08:17:06.411Z,96110.22
2023-03-08T08:19:08.712Z,96108.50
2023-03-08T08:21:11.406Z,96115.38
2023-03-08T08:23:12.832Z,96121.31
2023-03-08T08:25:14.165Z,96115.47
2023-03-08T08:27:15.536Z,96112.94
2023-03-08T08:29:16.860Z,96113.03
2023-03-08T08:31:18.225Z,96102.88
2023-03-08T08:33:19.579Z,96099.44
2023-03-08T08:35:20.990Z,96095.06
2023-03-08T08:37:23.021Z,96098.28
2023-03-08T08:39:24.405Z,96089.56
2023-03-08T08:41:25.862Z,96085.13
2023-03-08T08:43:27.193Z,96076.25
2023-03-08T08:45:28.660Z,96073.28
2023-03-08T08:47:30.205Z,96075.50
2023-03-08T08:49:31.862Z,96077.84
2023-03-08T08:51:33.202Z,96074.38
2023-03-08T08:53:34.536Z,96075.03
2023-03-08T08:55:35.930Z,96078.06
2023-03-08T08:57:37.336Z,96074.53
2023-03-08T08:59:38.709Z,96081.13
2023-03-08T09:01:43.904Z,96077.75
2023-03-08T09:03:45.507Z,96069.00
2023-03-08T09:05:46.854Z,96080.22
2023-03-08T09:07:48.177Z,96077.00
2023-03-08T09:09:49.542Z,96077.44
2023-03-08T09:11:55.278Z,96074.94
2023-03-08T09:13:57.108Z,96070.19
2023-03-08T09:15:58.448Z,96067.22
2023-03-08T09:17:59.944Z,96065.72
2023-03-08T09:20:01.288Z,96067.69
2023-03-08T09:22:02.699Z,96069.69
2023-03-08T09:24:04.109Z,96067.25
2023-03-08T09:26:06.259Z,96063.19
2023-03-08T09:28:07.639Z,96060.06
2023-03-08T09:30:09.204Z,96058.66
2023-03-08T09:32:10.664Z,96058.75
2023-03-08T09:34:12.118Z,96057.44
2023-03-08T09:36:13.443Z,96055.09
2023-03-08T09:38:14.778Z,96048.44
2023-03-08T09:40:16.094Z,96048.38
2023-03-08T09:42:20.579Z,96046.72
2023-03-08T09:44:21.950Z,96035.94
2023-03-08T09:46:23.323Z,96028.28
2023-03-08T09:48:24.775Z,96020.47
2023-03-08T09:50:26.175Z,96017.81
2023-03-08T09:52:27.573Z,96018.50
2023-03-08T09:54:28.960Z,96014.94
2023-03-08T09:56:30.310Z,96019.91
2023-03-08T09:58:31.720Z,96012.88
2023-03-08T10:00:33.122Z,96008.28
2023-03-08T10:02:34.498Z,95994.47
2023-03-08T10:04:35.968Z,95858.63
2023-03-08T10:06:37.313Z,95989.00
2023-03-08T10:08:38.688Z,95989.78
2023-03-08T10:10:40.110Z,95982.72
2023-03-08T10:12:41.495Z,95979.34
2023-03-08T10:14:42.851Z,95976.63
2023-03-08T10:16:44.282Z,95964.69
2023-03-08T10:18:45.711Z,95972.25
2023-03-08T10:20:47.078Z,95973.97
2023-03-08T10:22:48.680Z,95969.59
2023-03-08T10:24:50.041Z,95967.03
2023-03-08T10:26:51.356Z,95962.13
2023-03-08T10:28:52.705Z,95964.59
2023-03-08T10:30:54.449Z,95960.47
2023-03-08T10:32:56.599Z,95961.47
2023-03-08T10:34:57.982Z,95954.81
2023-03-08T10:36:59.346Z,95963.28
2023-03-08T10:39:01.128Z,95959.94
2023-03-08T10:41:02.906Z,95961.88
2023-03-08T10:43:05.524Z,95955.25
2023-03-08T10:45:06.869Z,95951.16
2023-03-08T10:47:08.206Z,95951.31
2023-03-08T10:49:10.024Z,95958.25
2023-03-08T10:51:11.374Z,95947.28
2023-03-08T10:53:12.738Z,95941.53
2023-03-08T10:55:14.105Z,95953.56
2023-03-08T10:57:15.445Z,95945.06
2023-03-08T10:59:17.185Z,95941.84
2023-03-08T11:01:18.516Z,95936.91
2023-03-08T11:03:20.065Z,95941.28
2023-03-08T11:05:22.125Z,95932.97
2023-03-08T11:07:26.458Z,95924.56
2023-03-08T11:09:28.053Z,95929.84
2023-03-08T11:11:29.386Z,95925.66
2023-03-08T11:13:31.773Z,95916.34
2023-03-08T11:15:33.221Z,95912.06
2023-03-08T11:17:35.643Z,95916.44
2023-03-08T11:19:36.968Z,95913.78
2023-03-08T11:21:38.299Z,95909.59
2023-03-08T11:23:40.227Z,95906.97
2023-03-08T11:25:41.564Z,95921.28
2023-03-08T11:27:42.929Z,95899.06
2023-03-08T11:29:44.284Z,95899.78
2023-03-08T11:31:45.706Z,95885.25
2023-03-08T11:33:47.135Z,95887.53
2023-03-08T11:35:49.900Z,95881.38
2023-03-08T11:37:51.257Z,95871.06
2023-03-08T11:39:52.598Z,95875.09
2023-03-08T11:41:54.020Z,95865.63
2023-03-08T11:43:55.367Z,95863.81
2023-03-08T11:45:56.852Z,95856.72
2023-03-08T11:47:58.196Z,95846.44
2023-03-08T11:50:05.877Z,95845.63
2023-03-08T11:52:07.342Z,95836.13
2023-03-08T11:54:08.680Z,95833.41
2023-03-08T11:56:10.029Z,95826.66
2023-03-08T11:58:11.413Z,95822.47
2023-03-08T12:00:13.257Z,95823.28
2023-03-08T12:02:14.797Z,95813.00
2023-03-08T12:04:16.228Z,95812.00
2023-03-08T12:06:28.377Z,95806.06
2023-03-08T12:08:30.761Z,95801.06
2023-03-08T12:10:32.288Z,95799.41
2023-03-08T12:12:33.676Z,95791.84
2023-03-08T12:14:35.018Z,95794.47
2023-03-08T12:16:36.450Z,95780.88
2023-03-08T12:18:37.877Z,95780.25
2023-03-08T12:20:39.265Z,95770.94
2023-03-08T12:22:43.823Z,95774.50
2023-03-08T12:24:45.207Z,95761.09
2023-03-08T12:26:46.576Z,95760.34
2023-03-08T12:28:47.940Z,95779.13
2023-03-08T12:30:49.312Z,95764.00
2023-03-08T12:32:50.931Z,95750.59
2023-03-08T12:34:52.408Z,95751.50
2023-03-08T12:36:54.037Z,95746.47
2023-03-08T12:38:56.706Z,95744.94
2023-03-08T12:40:58.069Z,95750.09
2023-03-08T12:42:59.440Z,95738.34
2023-03-08T12:45:00.816Z,95737.44
2023-03-08T12:47:04.023Z,95736.72
2023-03-08T12:49:05.752Z,95743.53
2023-03-08T12:51:07.163Z,95730.88
2023-03-08T12:53:08.537Z,95730.97
2023-03-08T12:55:11.569Z,95723.38
2023-03-08T12:57:12.899Z,95742.88
2023-03-08T12:59:14.298Z,95725.84
2023-03-08T13:01:15.754Z,95719.03
2023-03-08T13:03:17.140Z,95600.78
2023-03-08T13:05:21.946Z,95716.31
2023-03-08T13:07:23.312Z,95723.03
2023-03-08T13:09:27.408Z,95725.41
2023-03-08T13:11:28.777Z,95723.44
2023-03-08T13:13:38.803Z,95728.47
2023-03-08T13:15:40.800Z,95728.34
2023-03-08T13:17:44.817Z,95722.25
2023-03-08T13:19:46.222Z,95730.72
2023-03-08T13:21:47.598Z,95727.19
2023-03-08T13:23:48.984Z,95726.13
2023-03-08T13:25:51.540Z,95725.19
2023-03-08T13:27:53.059Z,95727.72
2023-03-08T13:29:55.012Z,95726.84
2023-03-08T13:31:56.445Z,95727.72
2023-03-08T13:33:57.814Z,95724.19
2023-03-08T13:35:59.341Z,95725.00
2023-03-08T13:38:00.722Z,95734.16
2023-03-08T13:40:02.421Z,95734.16
2023-03-08T13:42:03.774Z,95729.75
2023-03-08T13:44:05.158Z,95745.97
2023-03-08T13:46:06.555Z,95738.25
2023-03-08T13:48:08.815Z,95741.53
2023-03-08T13:50:10.196Z,95749.19
2023-03-08T13:52:11.582Z,95749.53
2023-03-08T13:54:12.951Z,95742.88
2023-03-08T13:56:14.336Z,95734.97
2023-03-08T13:58:15.718Z,95729.63
2023-03-08T14:00:17.099Z,95726.16
2023-03-08T14:02:18.637Z,95723.78
2023-03-08T14:04:20.063Z,95723.84
2023-03-08T14:06:21.418Z,95720.25
2023-03-08T14:08:24.927Z,95707.97
2023-03-08T14:10:28.152Z,95725.06
2023-03-08T14:12:29.632Z,95715.84
2023-03-08T14:14:34.003Z,95712.38
2023-03-08T14:16:35.386Z,95700.75
2023-03-08T14:18:36.896Z,95700.91
2023-03-08T14:20:38.363Z,95703.66
2023-03-08T14:22:40.551Z,95692.97
2023-03-08T14:24:41.969Z,95691.31
2023-03-08T14:26:43.414Z,95692.97
2023-03-08T14:28:45.435Z,95682.75
2023-03-08T14:30:49.663Z,95680.84
2023-03-08T14:32:51.157Z,95681.41
2023-03-08T14:34:52.688Z,95675.28
2023-03-08T14:36:54.020Z,95671.84
2023-03-08T14:38:55.421Z,95671.84
2023-03-08T14:40:56.785Z,95673.16
2023-03-08T14:42:58.226Z,95659.50
2023-03-08T14:44:59.812Z,95660.22
2023-03-08T14:47:01.129Z,95661.75
2023-03-08T14:49:02.843Z,95656.66
2023-03-08T14:51:04.969Z,95654.41
2023-03-08T14:53:06.301Z,95654.50
2023-03-08T14:55:07.636Z,95650.19
2023-03-08T14:57:09.037Z,95657.97
2023-03-08T14:59:14.004Z,95663.16
2023-03-08T15:01:24.072Z,95656.81
2023-03-08T15:03:25.485Z,95649.81
2023-03-08T15:05:29.642Z,95637.88
2023-03-08T15:07:31.342Z,95490.88
2023-03-08T15:09:32.754Z,95634.06
2023-03-08T15:11:34.144Z,95638.69
2023-03-08T15:13:35.558Z,95639.69
2023-03-08T15:15:36.924Z,95631.72
2023-03-08T15:17:38.268Z,95628.25
2023-03-08T15:19:39.618Z,95614.03
2023-03-08T15:21:41.065Z,95608.22
2023-03-08T15:23:43.428Z,95609.13
2023-03-08T15:25:44.856Z,95477.06
2023-03-08T15:27:48.215Z,95603.31
2023-03-08T15:29:50.132Z,95593.09
2023-03-08T15:31:51.456Z,95591.44
2023-03-08T15:33:52.847Z,95588.16
2023-03-08T15:35:54.261Z,95586.50
2023-03-08T15:37:55.614Z,95581.50
2023-03-08T15:39:56.985Z,95578.25
2023-03-08T15:42:01.521Z,95579.84
2023-03-08T15:44:03.214Z,95580.78
2023-03-08T15:46:07.445Z,95578.25
2023-03-08T15:48:08.773Z,95580.78
2023-03-08T15:50:11.084Z,95580.78
2023-03-08T15:52:15.558Z,95580.38
2023-03-08T15:54:16.966Z,95579.94
2023-03-08T15:56:18.321Z,95577.16
2023-03-08T15:58:19.724Z,95591.28
2023-03-08T16:00:21.117Z,95581.50
2023-03-08T16:02:22.764Z,95576.75
2023-03-08T16:04:24.207Z,95571.25
2023-03-08T16:06:28.229Z,95561.44
2023-03-08T16:08:29.713Z,95555.41
2023-03-08T16:10:40.549Z,95565.19
2023-03-08T16:12:42.204Z,95556.09
2023-03-08T16:14:43.640Z,95560.25
2023-03-08T16:16:46.185Z,95556.94
2023-03-08T16:18:48.787Z,95539.63
2023-03-08T16:20:50.305Z,95539.47
2023-03-08T16:22:51.803Z,95545.31
2023-03-08T16:24:53.294Z,95542.00
2023-03-08T16:26:54.665Z,95542.03
2023-03-08T16:30:57.409Z,95538.22
2023-03-08T16:32:58.754Z,95535.66
2023-03-08T16:35:00.230Z,95531.38
2023-03-08T16:37:01.594Z,95540.56
2023-03-08T16:39:03.080Z,95535.66
2023-03-08T16:41:13.573Z,95539.25
2023-03-08T16:43:15.852Z,95525.00
2023-03-08T16:45:17.240Z,95523.91
2023-03-08T16:47:18.727Z,95522.56
2023-03-08T16:49:20.380Z,95523.16
2023-03-08T16:51:23.091Z,95534.31
2023-03-08T16:53:24.658Z,95524.19
2023-03-08T16:55:26.462Z,95522.66
2023-03-08T16:57:28.109Z,95522.66
2023-03-08T16:59:29.588Z,95515.19
2023-03-08T17:01:31.674Z,95517.63
2023-03-08T17:03:33.148Z,95524.41
2023-03-08T17:05:34.680Z,95511.63
2023-03-08T17:07:38.737Z,95510.78
2023-03-08T17:09:40.201Z,95508.22
2023-03-08T17:11:41.545Z,95510.78
2023-03-08T17:13:42.871Z,95515.00
2023-03-08T17:15:45.202Z,95515.69
2023-03-08T17:19:47.924Z,95520.63
2023-03-08T17:21:49.309Z,95504.75
2023-03-08T17:23:50.691Z,95506.59
2023-03-08T17:25:52.589Z,95506.00
2023-03-08T17:27:59.820Z,95505.28
2023-03-08T17:30:02.598Z,95505.78
2023-03-08T17:32:03.972Z,95504.06
2023-03-08T17:34:05.384Z,95500.84
2023-03-08T17:36:07.146Z,95504.94
2023-03-08T17:38:08.586Z,95504.00
2023-03-08T17:40:10.607Z,95498.78
2023-03-08T17:42:12.204Z,95495.28
2023-03-08T17:44:14.025Z,95499.63
2023-03-08T17:46:15.452Z,95493.91
2023-03-08T17:48:16.916Z,95502.91
2023-03-08T17:50:18.444Z,95502.28
2023-03-08T17:52:19.785Z,95490.28
2023-03-08T17:54:21.253Z,95497.69
2023-03-08T17:56:22.592Z,95485.09
2023-03-08T17:58:23.989Z,95482.13
2023-03-08T18:00:25.446Z,95490.03
2023-03-08T18:02:27.002Z,95478.31
2023-03-08T18:04:28.470Z,95476.41
2023-03-08T18:06:29.943Z,95484.19
2023-03-08T18:08:31.321Z,95477.38
2023-03-08T18:10:32.759Z,95475.09
2023-03-08T18:12:34.095Z,95476.03
2023-03-08T18:14:39.985Z,95476.66
2023-03-08T18:16:43.107Z,95475.75
2023-03-08T18:18:45.750Z,95479.94
2023-03-08T18:20:47.133Z,95473.41
2023-03-08T18:22:51.396Z,95471.84
2023-03-08T18:24:52.777Z,95471.47
2023-03-08T18:26:54.208Z,95474.03
2023-03-08T18:28:55.645Z,95464.81
2023-03-08T18:30:57.024Z,95460.31
2023-03-08T18:32:58.395Z,95456.66
2023-03-08T18:34:59.922Z,95473.97
2023-03-08T18:37:04.000Z,95476.31
2023-03-08T18:39:05.697Z,95469.84
2023-03-08T18:41:07.127Z,95482.16
2023-03-08T18:43:08.462Z,95484.06
2023-03-08T18:45:09.885Z,95491.84
2023-03-08T18:47:12.257Z,95490.75
2023-03-08T18:49:13.874Z,95490.25
2023-03-08T18:51:18.199Z,95491.34
2023-03-08T18:53:22.448Z,95487.06
2023-03-08T18:55:23.878Z,95491.50
2023-03-08T18:57:25.293Z,95486.34
2023-03-08T18:59:30.282Z,95478.66
2023-03-08T19:01:31.651Z,95482.25
2023-03-08T19:03:35.826Z,95476.81
2023-03-08T19:05:37.142Z,95474.97
2023-03-08T19:07:43.852Z,95466.91
2023-03-08T19:09:45.981Z,95473.25
2023-03-08T19:11:50.358Z,95471.72
2023-03-08T19:13:51.723Z,95462.19
2023-03-08T19:15:53.287Z,95460.53
2023-03-08T19:17:54.651Z,95455.22
2023-03-08T19:19:56.026Z,95464.16
2023-03-08T19:21:57.354Z,95469.06
2023-03-08T19:23:58.705Z,95470.50
2023-03-08T19:26:18.875Z,95458.19
2023-03-08T19:28:22.947Z,95469.47
2023-03-08T19:30:26.419Z,95462.97
2023-03-08T19:32:28.096Z,95472.03
2023-03-08T19:34:29.463Z,95467.00
2023-03-08T19:36:33.397Z,95465.44
2023-03-08T19:38:34.845Z,95460.13
2023-03-08T19:40:37.822Z,95463.38
2023-03-08T19:42:39.177Z,95463.78
2023-03-08T19:44:40.558Z,95465.59
2023-03-08T19:46:41.897Z,95464.91
2023-03-08T19:48:43.260Z,95458.25
2023-03-08T19:50:47.750Z,95453.75
2023-03-08T19:52:51.794Z,95461.56
2023-03-08T19:54:53.186Z,95464.94
2023-03-08T19:56:54.573Z,95464.13
2023-03-08T19:58:59.762Z,95464.44
2023-03-08T20:01:01.144Z,95469.78
2023-03-08T20:03:02.668Z,95459.53
2023-03-08T20:05:04.064Z,95467.38
2023-03-08T20:07:05.406Z,95467.78
2023-03-08T20:09:06.787Z,95463.13
2023-03-08T20:11:08.161Z,95455.88
2023-03-08T20:13:09.485Z,95452.31
2023-03-08T20:15:11.203Z,95453.81
2023-03-08T20:17:15.556Z,95458.31
2023-03-08T20:19:17.702Z,95455.25
2023-03-08T20:21:19.073Z,95456.84
2023-03-08T20:23:20.464Z,95452.84
2023-03-08T20:25:21.868Z,95458.25
2023-03-08T20:27:23.240Z,95456.72
2023-03-08T20:29:27.295Z,95469.47
2023-03-08T20:31:28.632Z,95452.53
2023-03-08T20:33:30.016Z,95465.50
2023-03-08T20:35:31.379Z,95464.56
2023-03-08T20:37:32.830Z,95459.56
2023-03-08T20:39:34.241Z,95470.63
2023-03-08T20:41:35.569Z,95469.69
2023-03-08T20:43:36.994Z,95472.22
2023-03-08T20:45:38.366Z,95474.88
2023-03-08T20:47:39.736Z,95465.16
2023-03-08T20:49:41.109Z,95464.03
2023-03-08T20:51:42.468Z,95458.88
2023-03-08T20:53:43.895Z,95466.81
2023-03-08T20:55:45.248Z,95467.38
2023-03-08T20:57:46.640Z,95466.56
2023-03-08T20:59:48.285Z,95458.25
2023-03-08T21:01:49.639Z,95462.00
2023-03-08T21:03:51.106Z,95456.97
2023-03-08T21:05:52.439Z,95467.75
2023-03-08T21:07:53.860Z,95466.34
2023-03-08T21:09:55.548Z,95469.69
2023-03-08T21:11:56.873Z,95467.25
2023-03-08T21:13:58.230Z,95463.88
2023-03-08T21:15:59.676Z,95465.81
2023-03-08T21:18:01.016Z,95468.84
2023-03-08T21:20:02.329Z,95463.63
2023-03-08T21:22:03.756Z,95465.97
2023-03-08T21:24:05.234Z,95474.59
2023-03-08T21:26:06.602Z,95460.41
2023-03-08T21:28:07.952Z,95458.19
2023-03-08T21:30:09.321Z,95460.78
2023-03-08T21:32:10.794Z,95462.00
2023-03-08T21:34:12.192Z,95460.28
2023-03-08T21:36:13.520Z,95462.41
2023-03-08T21:38:14.896Z,95461.34
2023-03-08T21:40:16.244Z,95457.56
2023-03-08T21:42:17.579Z,95456.44
2023-03-08T21:44:18.980Z,95447.28
2023-03-08T21:46:20.427Z,95458.09
2023-03-08T21:48:21.937Z,95453.81
2023-03-08T21:50:23.306Z,95450.53
2023-03-08T21:52:24.670Z,95445.00
2023-03-08T21:54:26.057Z,95441.63
2023-03-08T21:56:27.386Z,95434.44
2023-03-08T21:58:29.484Z,95440.25
2023-03-08T22:00:30.931Z,95435.47
2023-03-08T22:02:32.282Z,95440.81
2023-03-08T22:04:39.394Z,95429.94
2023-03-08T22:06:40.771Z,95310.59
2023-03-08T22:08:42.108Z,95426.06
2023-03-08T22:10:43.528Z,95428.84
2023-03-08T22:12:44.855Z,95428.06
2023-03-08T22:14:46.169Z,95424.28
2023-03-08T22:16:47.578Z,95425.28
2023-03-08T22:18:48.897Z,95422.44
2023-03-08T22:20:50.328Z,95434.19
2023-03-08T22:22:51.669Z,95434.19
2023-03-08T22:24:53.001Z,95422.13
2023-03-08T22:26:54.380Z,95429.69
2023-03-08T22:28:55.844Z,95421.31
2023-03-08T22:30:57.188Z,95429.78
2023-03-08T22:32:58.567Z,95434.28
2023-03-08T22:34:59.898Z,95426.22
2023-03-08T22:37:01.241Z,95419.78
2023-03-08T22:39:05.268Z,95414.16
2023-03-08T22:41:06.588Z,95416.81
2023-03-08T22:43:08.946Z,95413.72
2023-03-08T22:45:10.674Z,95402.78
2023-03-08T22:47:12.027Z,95401.44
2023-03-08T22:49:14.470Z,95402.66
2023-03-08T22:51:17.408Z,95403.88
2023-03-08T22:53:18.766Z,95398.16
2023-03-08T22:55:20.097Z,95404.28
2023-03-08T22:57:21.520Z,95396.72
2023-03-08T22:59:23.201Z,95400.00
2023-03-08T23:01:24.679Z,95401.72
2023-03-08T23:03:26.177Z,95398.78
2023-03-08T23:05:27.621Z,95394.50
2023-03-08T23:07:28.940Z,95402.25
2023-03-08T23:09:30.630Z,95399.81
2023-03-08T23:11:32.022Z,95405.03
2023-03-08T23:13:34.721Z,95402.66
2023-03-08T23:15:36.321Z,95404.47
2023-03-08T23:17:37.671Z,95402.94
2023-03-08T23:19:39.063Z,95394.50
2023-03-08T23:21:40.505Z,95404.78
2023-03-08T23:23:41.878Z,95404.78
2023-03-08T23:25:44.090Z,95403.13
2023-03-08T23:27:45.527Z,95413.34
2023-03-08T23:29:46.897Z,95407.53
2023-03-08T23:31:48.319Z,95412.75
2023-03-08T23:33:49.688Z,95404.28
2023-03-08T23:35:51.094Z,95404.28
2023-03-08T23:37:52.472Z,95401.72
2023-03-08T23:39:53.785Z,95413.59
2023-03-08T23:41:55.166Z,95401.53
2023-03-08T23:43:56.556Z,95398.34
2023-03-08T23:45:58.021Z,95391.69
2023-03-08T23:48:01.023Z,95391.00
2023-03-08T23:50:03.517Z,95391.31
2023-03-08T23:52:04.879Z,95396.03
2023-03-08T23:54:06.329Z,95402.34